Currently 59°F in Moreno Valley, California, USA
59°F
73°F / 59°F
calm
0.01"
Friday, November 17, 2017 8:44 PM PST

Moreno Valley, California Weather Summary
Last 36 Hours

Temperature Winds Hourly Humidity Dewpoint
Time Report Norm Report Norm Max Gusts Precip. Rpt. Norm Rpt. Norm Pressure
1,3Fri 08:44 PM  59.4°F  58°F  calm  2 mph  3 mph  0.00"  95%  57%  58°F  42°F  28.21"
Fri 08:00 PM  60.0°F  59°F  calm  2 mph  7 mph  0.00"  94%  55%  58°F  42°F  28.20"
Fri 07:00 PM  61.1°F  60°F  5 mph SW  2 mph  8 mph  0.00"  92%  53%  59°F  42°F  28.18"
Fri 06:00 PM  62.9°F  62°F  2 mph NW  2 mph  9 mph  0.00"  87%  50%  59°F  42°F  28.17"
Fri 05:00 PM  66.0°F  65°F  3 mph NW  2 mph  8 mph  0.00"  73%  45%  57°F  42°F  28.15"
Fri 04:00 PM  69.3°F  69°F  6 mph W  4 mph  10 mph  0.00"  62%  39%  55°F  42°F  28.15"
Fri 03:00 PM  71.4°F  72°F  5 mph W  4 mph  12 mph  0.00"  56%  36%  54°F  42°F  28.15"
2Fri 02:22 PM  73.1°F  73°F  6 mph W  5 mph  10 mph  ----  52%  34%  54°F  42°F  28.16"
Fri 02:00 PM  72.6°F  73°F  6 mph W  4 mph  10 mph  0.00"  52%  34%  54°F  42°F  28.15"
Fri 01:00 PM  71.0°F  72°F  3 mph SW  4 mph  10 mph  0.00"  54%  35%  53°F  42°F  28.17"
Fri 12:00 PM  68.2°F  71°F  2 mph SW  4 mph  8 mph  0.00"  63%  37%  55°F  42°F  28.18"
Fri 11:00 AM  67.2°F  69°F  4 mph W  3 mph  8 mph  0.00"  67%  40%  56°F  43°F  28.21"
Fri 10:00 AM  62.3°F  66°F  calm  3 mph  3 mph  0.00"  87%  45%  58°F  44°F  28.22"
Fri 09:00 AM  60.0°F  63°F  calm  2 mph  6 mph  0.01"  92%  51%  58°F  44°F  28.22"
Fri 08:00 AM  60.0°F  60°F  calm  2 mph  4 mph  0.00"  88%  55%  56°F  43°F  28.21"
Fri 07:00 AM  59.6°F  54°F  calm  1 mph  3 mph  0.00"  87%  60%  56°F  40°F  28.18"
Fri 06:00 AM  60.4°F  53°F  calm  1 mph  1 mph  0.00"  79%  60%  54°F  39°F  28.16"
Fri 05:00 AM  60.8°F  54°F  calm  1 mph  7 mph  0.00"  79%  60%  54°F  40°F  28.15"
Fri 04:00 AM  62.8°F  54°F  calm  1 mph  6 mph  0.00"  72%  60%  53°F  40°F  28.15"
Fri 03:00 AM  62.6°F  54°F  1 mph S  1 mph  4 mph  0.00"  66%  60%  50°F  40°F  28.13"
Fri 02:00 AM  61.4°F  55°F  calm  1 mph  1 mph  0.00"  66%  60%  50°F  40°F  28.12"
Fri 01:00 AM  61.7°F  55°F  calm  1 mph  1 mph  0.00"  65%  60%  49°F  41°F  28.12"
Fri 12:00 AM  62.0°F  55°F  calm  1 mph  2 mph  0.00"  64%  60%  49°F  41°F  28.13"
Thu 11:00 PM  63.2°F  56°F  1 mph NE  1 mph  3 mph  0.00"  62%  59%  49°F  41°F  28.13"
Thu 10:00 PM  64.6°F  57°F  calm  2 mph  7 mph  0.00"  58%  58%  49°F  42°F  28.13"
Thu 09:00 PM  67.3°F  58°F  calm  1 mph  4 mph  0.00"  54%  56%  50°F  42°F  28.13"
Thu 08:00 PM  68.6°F  59°F  calm  2 mph  8 mph  0.00"  52%  54%  49°F  41°F  28.13"
Thu 07:00 PM  69.1°F  60°F  4 mph W  2 mph  8 mph  0.00"  56%  51%  52°F  41°F  28.13"
Thu 06:00 PM  70.1°F  62°F  5 mph SE  2 mph  8 mph  0.00"  53%  48%  51°F  42°F  28.11"
Thu 05:00 PM  71.7°F  65°F  calm  2 mph  8 mph  0.00"  49%  44%  51°F  41°F  28.08"
Thu 04:00 PM  74.2°F  70°F  3 mph NW  4 mph  6 mph  0.00"  45%  38%  51°F  42°F  28.07"
Thu 03:00 PM  76.0°F  72°F  calm  4 mph  7 mph  0.00"  42%  35%  50°F  42°F  28.07"
Thu 02:00 PM  76.5°F  73°F  5 mph NW  4 mph  8 mph  0.00"  41%  33%  50°F  41°F  28.09"
Thu 01:00 PM  78.0°F  73°F  1 mph W  4 mph  8 mph  0.00"  39%  34%  50°F  41°F  28.10"
Thu 12:00 PM  78.2°F  71°F  2 mph SW  4 mph  7 mph  0.00"  39%  36%  50°F  42°F  28.10"
Thu 11:00 AM  77.9°F  69°F  calm  3 mph  5 mph  0.00"  39%  39%  50°F  42°F  28.13"
Thu 10:00 AM  73.8°F  66°F  1 mph S  3 mph  4 mph  0.00"  43%  44%  49°F  43°F  28.15"
Thu 09:00 AM  71.1°F  63°F  1 mph SW  2 mph  2 mph  0.00"  47%  49%  49°F  43°F  28.15"

  1. Current weather data. No green row appears if the current weather data is also the high or low for the current day.
  2. High temperature for the current day.
  3. Low temperature for the current day.

The Moreno Valley, California weather pages are a service of WeatherCurrents. Moreno Valley is located in Southern California's Inland Empire, east of Riverside and north of Perris, along the State Route 60 freeway.
Copyright ©Fri Nov 17 20:45:57 PST 2017  WeatherCurrents. All rights reserved. - Submit questions and comments - Privacy Policy

This page automatically refreshes every 10 minutes.